sensor_id;sensor_type;location;lat;lon;timestamp;P1;durP1;ratioP1;P2;durP2;ratioP2
23802;SDS011;12082;51.786;6.018;2023-03-01T00:01:26;23.50;;;21.40;;
23802;SDS011;12082;51.786;6.018;2023-03-01T00:03:53;22.60;;;20.53;;
23802;SDS011;12082;51.786;6.018;2023-03-01T00:06:20;23.80;;;21.70;;
23802;SDS011;12082;51.786;6.018;2023-03-01T00:08:46;24.40;;;22.37;;
23802;SDS011;12082;51.786;6.018;2023-03-01T00:11:30;22.93;;;20.77;;
23802;SDS011;12082;51.786;6.018;2023-03-01T00:13:58;23.60;;;21.70;;
23802;SDS011;12082;51.786;6.018;2023-03-01T00:16:41;24.23;;;22.27;;
23802;SDS011;12082;51.786;6.018;2023-03-01T00:19:09;22.90;;;20.80;;
23802;SDS011;12082;51.786;6.018;2023-03-01T00:21:39;23.70;;;21.27;;
23802;SDS011;12082;51.786;6.018;2023-03-01T00:24:05;24.10;;;21.80;;
23802;SDS011;12082;51.786;6.018;2023-03-01T00:26:31;23.47;;;21.50;;
23802;SDS011;12082;51.786;6.018;2023-03-01T00:28:57;22.53;;;20.53;;
23802;SDS011;12082;51.786;6.018;2023-03-01T00:31:25;23.17;;;21.07;;
23802;SDS011;12082;51.786;6.018;2023-03-01T00:33:53;23.57;;;21.07;;
23802;SDS011;12082;51.786;6.018;2023-03-01T00:36:22;23.40;;;21.23;;
23802;SDS011;12082;51.786;6.018;2023-03-01T00:38:49;22.60;;;20.20;;
23802;SDS011;12082;51.786;6.018;2023-03-01T00:41:16;21.83;;;19.83;;
23802;SDS011;12082;51.786;6.018;2023-03-01T00:43:43;23.10;;;21.03;;
23802;SDS011;12082;51.786;6.018;2023-03-01T00:46:13;22.47;;;20.47;;
23802;SDS011;12082;51.786;6.018;2023-03-01T00:48:40;22.23;;;20.03;;
23802;SDS011;12082;51.786;6.018;2023-03-01T00:51:07;23.93;;;21.60;;
23802;SDS011;12082;51.786;6.018;2023-03-01T00:53:34;21.13;;;19.40;;
23802;SDS011;12082;51.786;6.018;2023-03-01T00:56:00;22.87;;;20.60;;
23802;SDS011;12082;51.786;6.018;2023-03-01T00:58:26;23.03;;;21.00;;
23802;SDS011;12082;51.786;6.018;2023-03-01T01:00:52;22.53;;;20.63;;
23802;SDS011;12082;51.786;6.018;2023-03-01T01:03:18;23.17;;;21.03;;
23802;SDS011;12082;51.786;6.018;2023-03-01T01:05:44;24.23;;;22.10;;
23802;SDS011;12082;51.786;6.018;2023-03-01T01:08:10;22.40;;;20.40;;
23802;SDS011;12082;51.786;6.018;2023-03-01T01:10:36;22.90;;;20.70;;
23802;SDS011;12082;51.786;6.018;2023-03-01T01:13:02;21.37;;;19.60;;
23802;SDS011;12082;51.786;6.018;2023-03-01T01:15:28;22.07;;;20.10;;
23802;SDS011;12082;51.786;6.018;2023-03-01T01:17:53;22.40;;;20.30;;
23802;SDS011;12082;51.786;6.018;2023-03-01T01:20:19;23.13;;;20.93;;
23802;SDS011;12082;51.786;6.018;2023-03-01T01:22:45;22.07;;;19.87;;
23802;SDS011;12082;51.786;6.018;2023-03-01T01:25:11;23.43;;;21.00;;
23802;SDS011;12082;51.786;6.018;2023-03-01T01:27:36;22.50;;;20.37;;
23802;SDS011;12082;51.786;6.018;2023-03-01T01:30:02;22.33;;;20.17;;
23802;SDS011;12082;51.786;6.018;2023-03-01T01:32:29;22.50;;;20.23;;
23802;SDS011;12082;51.786;6.018;2023-03-01T01:34:54;22.47;;;20.47;;
23802;SDS011;12082;51.786;6.018;2023-03-01T01:37:20;24.57;;;20.77;;
23802;SDS011;12082;51.786;6.018;2023-03-01T01:39:46;22.70;;;20.53;;
23802;SDS011;12082;51.786;6.018;2023-03-01T01:42:15;21.90;;;19.70;;
23802;SDS011;12082;51.786;6.018;2023-03-01T01:44:42;22.87;;;20.70;;
23802;SDS011;12082;51.786;6.018;2023-03-01T01:47:17;23.43;;;21.30;;
23802;SDS011;12082;51.786;6.018;2023-03-01T01:49:49;23.53;;;21.17;;
23802;SDS011;12082;51.786;6.018;2023-03-01T01:54:49;23.13;;;20.93;;
23802;SDS011;12082;51.786;6.018;2023-03-01T01:57:45;23.20;;;21.00;;
23802;SDS011;12082;51.786;6.018;2023-03-01T02:00:15;22.57;;;20.43;;
23802;SDS011;12082;51.786;6.018;2023-03-01T02:02:43;23.20;;;20.93;;
23802;SDS011;12082;51.786;6.018;2023-03-01T02:07:59;22.43;;;20.20;;
23802;SDS011;12082;51.786;6.018;2023-03-01T02:10:26;23.33;;;21.43;;
23802;SDS011;12082;51.786;6.018;2023-03-01T02:12:52;23.30;;;21.27;;
23802;SDS011;12082;51.786;6.018;2023-03-01T02:15:21;22.57;;;20.67;;
23802;SDS011;12082;51.786;6.018;2023-03-01T02:17:47;23.27;;;21.37;;
23802;SDS011;12082;51.786;6.018;2023-03-01T02:22:44;22.67;;;20.70;;
23802;SDS011;12082;51.786;6.018;2023-03-01T02:25:22;23.73;;;21.77;;
23802;SDS011;12082;51.786;6.018;2023-03-01T02:28:04;22.63;;;20.83;;
23802;SDS011;12082;51.786;6.018;2023-03-01T02:30:50;22.17;;;20.37;;
23802;SDS011;12082;51.786;6.018;2023-03-01T02:33:35;23.10;;;21.17;;
23802;SDS011;12082;51.786;6.018;2023-03-01T02:36:19;22.87;;;21.03;;
23802;SDS011;12082;51.786;6.018;2023-03-01T02:38:49;24.30;;;21.90;;
23802;SDS011;12082;51.786;6.018;2023-03-01T02:41:19;23.00;;;21.30;;
23802;SDS011;12082;51.786;6.018;2023-03-01T02:43:46;22.87;;;20.87;;
23802;SDS011;12082;51.786;6.018;2023-03-01T02:46:16;23.07;;;21.17;;
23802;SDS011;12082;51.786;6.018;2023-03-01T02:56:27;25.50;;;23.13;;
23802;SDS011;12082;51.786;6.018;2023-03-01T02:58:53;26.90;;;24.13;;
23802;SDS011;12082;51.786;6.018;2023-03-01T03:01:19;23.50;;;21.17;;
23802;SDS011;12082;51.786;6.018;2023-03-01T03:03:45;24.87;;;22.53;;
23802;SDS011;12082;51.786;6.018;2023-03-01T03:06:11;23.47;;;21.57;;
23802;SDS011;12082;51.786;6.018;2023-03-01T03:08:37;25.23;;;22.83;;
23802;SDS011;12082;51.786;6.018;2023-03-01T03:11:03;23.77;;;21.80;;
23802;SDS011;12082;51.786;6.018;2023-03-01T03:13:28;25.17;;;22.83;;
23802;SDS011;12082;51.786;6.018;2023-03-01T03:15:55;24.60;;;22.27;;
23802;SDS011;12082;51.786;6.018;2023-03-01T03:18:21;25.57;;;23.17;;
23802;SDS011;12082;51.786;6.018;2023-03-01T03:20:47;24.23;;;21.97;;
23802;SDS011;12082;51.786;6.018;2023-03-01T03:23:17;26.10;;;23.60;;
23802;SDS011;12082;51.786;6.018;2023-03-01T03:25:50;24.93;;;22.77;;
23802;SDS011;12082;51.786;6.018;2023-03-01T03:28:17;24.67;;;22.47;;
23802;SDS011;12082;51.786;6.018;2023-03-01T03:30:42;25.97;;;23.57;;
23802;SDS011;12082;51.786;6.018;2023-03-01T03:33:09;24.07;;;21.93;;
23802;SDS011;12082;51.786;6.018;2023-03-01T03:35:43;26.10;;;23.47;;
23802;SDS011;12082;51.786;6.018;2023-03-01T03:38:11;25.20;;;23.07;;
23802;SDS011;12082;51.786;6.018;2023-03-01T03:40:43;25.80;;;23.33;;
23802;SDS011;12082;51.786;6.018;2023-03-01T03:43:15;25.40;;;23.30;;
23802;SDS011;12082;51.786;6.018;2023-03-01T03:45:43;25.47;;;23.17;;
23802;SDS011;12082;51.786;6.018;2023-03-01T03:48:10;25.53;;;23.17;;
23802;SDS011;12082;51.786;6.018;2023-03-01T03:50:37;26.47;;;24.13;;
23802;SDS011;12082;51.786;6.018;2023-03-01T03:53:04;24.90;;;22.77;;
23802;SDS011;12082;51.786;6.018;2023-03-01T03:55:36;25.97;;;23.43;;
23802;SDS011;12082;51.786;6.018;2023-03-01T03:58:04;24.93;;;22.63;;
23802;SDS011;12082;51.786;6.018;2023-03-01T04:00:35;25.13;;;22.83;;
23802;SDS011;12082;51.786;6.018;2023-03-01T04:03:06;25.37;;;22.80;;
23802;SDS011;12082;51.786;6.018;2023-03-01T04:05:33;23.47;;;21.20;;
23802;SDS011;12082;51.786;6.018;2023-03-01T04:08:00;24.93;;;22.77;;
23802;SDS011;12082;51.786;6.018;2023-03-01T04:10:29;24.87;;;22.47;;
23802;SDS011;12082;51.786;6.018;2023-03-01T04:12:56;26.90;;;22.63;;
23802;SDS011;12082;51.786;6.018;2023-03-01T04:15:22;25.30;;;22.93;;
23802;SDS011;12082;51.786;6.018;2023-03-01T04:17:49;24.93;;;22.93;;
23802;SDS011;12082;51.786;6.018;2023-03-01T04:20:17;25.83;;;23.43;;
23802;SDS011;12082;51.786;6.018;2023-03-01T04:23:01;25.53;;;23.00;;
23802;SDS011;12082;51.786;6.018;2023-03-01T04:25:35;25.30;;;22.97;;
23802;SDS011;12082;51.786;6.018;2023-03-01T04:28:10;25.50;;;22.93;;
23802;SDS011;12082;51.786;6.018;2023-03-01T04:30:37;26.40;;;24.10;;
23802;SDS011;12082;51.786;6.018;2023-03-01T04:33:07;25.77;;;23.67;;
23802;SDS011;12082;51.786;6.018;2023-03-01T04:35:35;26.00;;;23.30;;
23802;SDS011;12082;51.786;6.018;2023-03-01T04:38:01;25.10;;;22.60;;
23802;SDS011;12082;51.786;6.018;2023-03-01T04:40:28;25.80;;;23.50;;
23802;SDS011;12082;51.786;6.018;2023-03-01T04:42:53;26.17;;;23.73;;
23802;SDS011;12082;51.786;6.018;2023-03-01T04:45:19;25.97;;;23.53;;
23802;SDS011;12082;51.786;6.018;2023-03-01T04:47:45;25.73;;;23.53;;
23802;SDS011;12082;51.786;6.018;2023-03-01T04:50:12;26.10;;;23.70;;
23802;SDS011;12082;51.786;6.018;2023-03-01T04:52:40;26.37;;;23.80;;
23802;SDS011;12082;51.786;6.018;2023-03-01T04:55:06;25.03;;;22.53;;
23802;SDS011;12082;51.786;6.018;2023-03-01T04:57:32;23.60;;;21.60;;
23802;SDS011;12082;51.786;6.018;2023-03-01T04:59:58;25.40;;;23.10;;
23802;SDS011;12082;51.786;6.018;2023-03-01T05:02:23;27.07;;;24.57;;
23802;SDS011;12082;51.786;6.018;2023-03-01T05:04:49;26.20;;;23.37;;
23802;SDS011;12082;51.786;6.018;2023-03-01T05:07:15;26.80;;;24.30;;
23802;SDS011;12082;51.786;6.018;2023-03-01T05:09:44;27.00;;;24.37;;
23802;SDS011;12082;51.786;6.018;2023-03-01T05:12:11;26.90;;;24.40;;
23802;SDS011;12082;51.786;6.018;2023-03-01T05:14:37;26.23;;;23.73;;
23802;SDS011;12082;51.786;6.018;2023-03-01T05:17:03;25.90;;;23.40;;
23802;SDS011;12082;51.786;6.018;2023-03-01T05:19:29;25.73;;;23.27;;
23802;SDS011;12082;51.786;6.018;2023-03-01T05:21:56;26.77;;;24.23;;
23802;SDS011;12082;51.786;6.018;2023-03-01T05:24:32;27.17;;;24.57;;
23802;SDS011;12082;51.786;6.018;2023-03-01T05:26:59;25.87;;;23.53;;
23802;SDS011;12082;51.786;6.018;2023-03-01T05:29:25;26.50;;;24.10;;
23802;SDS011;12082;51.786;6.018;2023-03-01T05:31:52;27.70;;;25.17;;
23802;SDS011;12082;51.786;6.018;2023-03-01T05:34:38;25.93;;;23.10;;
23802;SDS011;12082;51.786;6.018;2023-03-01T05:37:03;27.60;;;25.07;;
23802;SDS011;12082;51.786;6.018;2023-03-01T05:39:30;27.53;;;24.87;;
23802;SDS011;12082;51.786;6.018;2023-03-01T05:41:57;27.60;;;25.07;;
23802;SDS011;12082;51.786;6.018;2023-03-01T05:44:24;28.43;;;25.63;;
23802;SDS011;12082;51.786;6.018;2023-03-01T05:46:50;29.47;;;26.60;;
23802;SDS011;12082;51.786;6.018;2023-03-01T05:49:16;33.30;;;26.63;;
23802;SDS011;12082;51.786;6.018;2023-03-01T05:51:43;28.87;;;26.00;;
23802;SDS011;12082;51.786;6.018;2023-03-01T05:54:13;26.63;;;23.87;;
23802;SDS011;12082;51.786;6.018;2023-03-01T05:56:39;27.77;;;25.27;;
23802;SDS011;12082;51.786;6.018;2023-03-01T05:59:05;28.97;;;26.07;;
23802;SDS011;12082;51.786;6.018;2023-03-01T06:01:31;28.50;;;25.70;;
23802;SDS011;12082;51.786;6.018;2023-03-01T06:03:58;30.67;;;26.77;;
23802;SDS011;12082;51.786;6.018;2023-03-01T06:06:23;28.90;;;25.70;;
23802;SDS011;12082;51.786;6.018;2023-03-01T06:08:50;28.57;;;25.73;;
23802;SDS011;12082;51.786;6.018;2023-03-01T06:11:16;28.33;;;25.33;;
23802;SDS011;12082;51.786;6.018;2023-03-01T06:13:42;30.07;;;25.83;;
23802;SDS011;12082;51.786;6.018;2023-03-01T06:16:08;29.67;;;26.50;;
23802;SDS011;12082;51.786;6.018;2023-03-01T06:18:34;28.20;;;25.13;;
23802;SDS011;12082;51.786;6.018;2023-03-01T06:21:00;34.70;;;26.57;;
23802;SDS011;12082;51.786;6.018;2023-03-01T06:23:25;30.33;;;27.10;;
23802;SDS011;12082;51.786;6.018;2023-03-01T06:25:51;30.50;;;27.50;;
23802;SDS011;12082;51.786;6.018;2023-03-01T06:28:17;30.37;;;27.30;;
23802;SDS011;12082;51.786;6.018;2023-03-01T06:30:42;29.30;;;26.50;;
23802;SDS011;12082;51.786;6.018;2023-03-01T06:33:08;28.83;;;26.03;;
23802;SDS011;12082;51.786;6.018;2023-03-01T06:35:33;28.50;;;25.60;;
23802;SDS011;12082;51.786;6.018;2023-03-01T06:38:00;32.03;;;27.33;;
23802;SDS011;12082;51.786;6.018;2023-03-01T06:40:27;28.67;;;25.90;;
23802;SDS011;12082;51.786;6.018;2023-03-01T06:42:54;31.20;;;28.00;;
23802;SDS011;12082;51.786;6.018;2023-03-01T06:45:20;30.20;;;27.20;;
23802;SDS011;12082;51.786;6.018;2023-03-01T06:47:46;29.50;;;26.77;;
23802;SDS011;12082;51.786;6.018;2023-03-01T06:50:13;31.00;;;26.13;;
23802;SDS011;12082;51.786;6.018;2023-03-01T06:52:39;29.63;;;26.53;;
23802;SDS011;12082;51.786;6.018;2023-03-01T06:55:04;28.17;;;25.37;;
23802;SDS011;12082;51.786;6.018;2023-03-01T06:57:30;29.23;;;25.13;;
23802;SDS011;12082;51.786;6.018;2023-03-01T06:59:56;29.57;;;26.47;;
23802;SDS011;12082;51.786;6.018;2023-03-01T07:02:22;27.80;;;25.30;;
23802;SDS011;12082;51.786;6.018;2023-03-01T07:04:50;26.70;;;24.30;;
23802;SDS011;12082;51.786;6.018;2023-03-01T07:07:17;28.13;;;25.47;;
23802;SDS011;12082;51.786;6.018;2023-03-01T07:09:43;28.00;;;25.30;;
23802;SDS011;12082;51.786;6.018;2023-03-01T07:12:09;27.60;;;24.93;;
23802;SDS011;12082;51.786;6.018;2023-03-01T07:14:35;28.90;;;26.20;;
23802;SDS011;12082;51.786;6.018;2023-03-01T07:17:01;27.47;;;24.97;;
23802;SDS011;12082;51.786;6.018;2023-03-01T07:19:27;26.43;;;23.87;;
23802;SDS011;12082;51.786;6.018;2023-03-01T07:21:53;28.83;;;25.80;;
23802;SDS011;12082;51.786;6.018;2023-03-01T07:24:20;27.60;;;25.00;;
23802;SDS011;12082;51.786;6.018;2023-03-01T07:26:50;27.10;;;24.60;;
23802;SDS011;12082;51.786;6.018;2023-03-01T07:29:16;26.53;;;24.03;;
23802;SDS011;12082;51.786;6.018;2023-03-01T07:31:42;27.70;;;24.97;;
23802;SDS011;12082;51.786;6.018;2023-03-01T07:34:08;28.93;;;26.13;;
23802;SDS011;12082;51.786;6.018;2023-03-01T07:36:35;28.00;;;25.07;;
23802;SDS011;12082;51.786;6.018;2023-03-01T07:39:01;28.30;;;25.47;;
23802;SDS011;12082;51.786;6.018;2023-03-01T07:41:28;26.97;;;24.20;;
23802;SDS011;12082;51.786;6.018;2023-03-01T07:43:54;27.83;;;24.60;;
23802;SDS011;12082;51.786;6.018;2023-03-01T07:46:20;26.40;;;23.57;;
23802;SDS011;12082;51.786;6.018;2023-03-01T07:48:46;26.93;;;24.43;;
23802;SDS011;12082;51.786;6.018;2023-03-01T07:51:12;25.63;;;22.93;;
23802;SDS011;12082;51.786;6.018;2023-03-01T07:53:39;24.33;;;21.53;;
23802;SDS011;12082;51.786;6.018;2023-03-01T07:56:09;23.33;;;21.23;;
23802;SDS011;12082;51.786;6.018;2023-03-01T07:58:36;22.60;;;20.50;;
23802;SDS011;12082;51.786;6.018;2023-03-01T08:01:03;20.17;;;18.27;;
23802;SDS011;12082;51.786;6.018;2023-03-01T08:03:29;20.00;;;18.20;;
23802;SDS011;12082;51.786;6.018;2023-03-01T08:05:55;19.03;;;17.53;;
23802;SDS011;12082;51.786;6.018;2023-03-01T08:08:20;19.47;;;17.57;;
23802;SDS011;12082;51.786;6.018;2023-03-01T08:10:46;20.07;;;18.17;;
23802;SDS011;12082;51.786;6.018;2023-03-01T08:13:11;20.40;;;18.33;;
23802;SDS011;12082;51.786;6.018;2023-03-01T08:15:37;17.77;;;16.27;;
23802;SDS011;12082;51.786;6.018;2023-03-01T08:18:02;18.93;;;17.17;;
23802;SDS011;12082;51.786;6.018;2023-03-01T08:20:28;19.20;;;17.53;;
23802;SDS011;12082;51.786;6.018;2023-03-01T08:22:54;18.10;;;16.53;;
23802;SDS011;12082;51.786;6.018;2023-03-01T08:25:19;19.33;;;17.63;;
23802;SDS011;12082;51.786;6.018;2023-03-01T08:27:45;19.47;;;17.57;;
23802;SDS011;12082;51.786;6.018;2023-03-01T08:30:11;19.00;;;17.40;;
23802;SDS011;12082;51.786;6.018;2023-03-01T08:32:37;20.40;;;18.27;;
23802;SDS011;12082;51.786;6.018;2023-03-01T08:35:04;18.97;;;17.30;;
23802;SDS011;12082;51.786;6.018;2023-03-01T08:37:30;19.13;;;17.50;;
23802;SDS011;12082;51.786;6.018;2023-03-01T08:39:58;18.43;;;16.63;;
23802;SDS011;12082;51.786;6.018;2023-03-01T08:42:26;18.33;;;16.63;;
23802;SDS011;12082;51.786;6.018;2023-03-01T08:44:52;18.90;;;17.07;;
23802;SDS011;12082;51.786;6.018;2023-03-01T08:47:18;17.97;;;16.57;;
23802;SDS011;12082;51.786;6.018;2023-03-01T08:49:44;18.90;;;17.27;;
23802;SDS011;12082;51.786;6.018;2023-03-01T08:52:09;19.30;;;17.30;;
23802;SDS011;12082;51.786;6.018;2023-03-01T08:54:35;19.27;;;17.20;;
23802;SDS011;12082;51.786;6.018;2023-03-01T08:57:02;19.57;;;17.87;;
23802;SDS011;12082;51.786;6.018;2023-03-01T08:59:28;20.23;;;18.40;;
23802;SDS011;12082;51.786;6.018;2023-03-01T09:01:54;21.40;;;18.43;;
23802;SDS011;12082;51.786;6.018;2023-03-01T09:04:20;19.93;;;18.13;;
23802;SDS011;12082;51.786;6.018;2023-03-01T09:06:46;19.60;;;17.83;;
23802;SDS011;12082;51.786;6.018;2023-03-01T09:09:14;21.67;;;17.43;;
23802;SDS011;12082;51.786;6.018;2023-03-01T09:11:41;19.73;;;18.10;;
23802;SDS011;12082;51.786;6.018;2023-03-01T09:14:07;19.73;;;17.87;;
23802;SDS011;12082;51.786;6.018;2023-03-01T09:16:32;18.73;;;17.03;;
23802;SDS011;12082;51.786;6.018;2023-03-01T09:19:01;19.27;;;16.80;;
23802;SDS011;12082;51.786;6.018;2023-03-01T09:21:27;18.60;;;16.93;;
23802;SDS011;12082;51.786;6.018;2023-03-01T09:23:53;19.13;;;17.37;;
23802;SDS011;12082;51.786;6.018;2023-03-01T09:26:22;17.43;;;15.90;;
23802;SDS011;12082;51.786;6.018;2023-03-01T09:28:49;17.60;;;16.27;;
23802;SDS011;12082;51.786;6.018;2023-03-01T09:31:17;18.17;;;16.73;;
23802;SDS011;12082;51.786;6.018;2023-03-01T09:33:45;18.43;;;16.73;;
23802;SDS011;12082;51.786;6.018;2023-03-01T09:36:15;18.20;;;16.70;;
23802;SDS011;12082;51.786;6.018;2023-03-01T09:38:43;18.13;;;16.40;;
23802;SDS011;12082;51.786;6.018;2023-03-01T09:41:09;17.37;;;15.87;;
23802;SDS011;12082;51.786;6.018;2023-03-01T09:43:56;17.73;;;16.20;;
23802;SDS011;12082;51.786;6.018;2023-03-01T09:46:28;17.30;;;15.63;;
23802;SDS011;12082;51.786;6.018;2023-03-01T09:49:09;17.87;;;16.33;;
23802;SDS011;12082;51.786;6.018;2023-03-01T09:51:39;16.90;;;15.60;;
23802;SDS011;12082;51.786;6.018;2023-03-01T09:54:05;16.97;;;15.47;;
23802;SDS011;12082;51.786;6.018;2023-03-01T09:56:40;17.20;;;15.67;;
23802;SDS011;12082;51.786;6.018;2023-03-01T10:01:58;16.73;;;15.47;;
23802;SDS011;12082;51.786;6.018;2023-03-01T10:04:38;16.50;;;15.37;;
23802;SDS011;12082;51.786;6.018;2023-03-01T10:10:00;16.30;;;14.83;;
23802;SDS011;12082;51.786;6.018;2023-03-01T10:12:33;17.17;;;15.70;;
23802;SDS011;12082;51.786;6.018;2023-03-01T10:20:30;16.40;;;15.20;;
23802;SDS011;12082;51.786;6.018;2023-03-01T10:23:08;17.30;;;15.93;;
23802;SDS011;12082;51.786;6.018;2023-03-01T10:31:17;17.60;;;16.20;;
23802;SDS011;12082;51.786;6.018;2023-03-01T10:33:47;18.10;;;16.43;;
23802;SDS011;12082;51.786;6.018;2023-03-01T10:36:16;17.33;;;16.07;;
23802;SDS011;12082;51.786;6.018;2023-03-01T10:38:50;17.83;;;16.43;;
23802;SDS011;12082;51.786;6.018;2023-03-01T10:41:17;17.57;;;16.23;;
23802;SDS011;12082;51.786;6.018;2023-03-01T10:43:55;17.37;;;15.90;;
23802;SDS011;12082;51.786;6.018;2023-03-01T10:49:07;18.53;;;16.97;;
23802;SDS011;12082;51.786;6.018;2023-03-01T10:51:45;17.20;;;15.60;;
23802;SDS011;12082;51.786;6.018;2023-03-01T10:54:20;17.00;;;15.60;;
23802;SDS011;12082;51.786;6.018;2023-03-01T10:57:00;17.10;;;15.63;;
23802;SDS011;12082;51.786;6.018;2023-03-01T10:59:28;16.47;;;15.17;;
23802;SDS011;12082;51.786;6.018;2023-03-01T11:02:03;16.00;;;14.70;;
23802;SDS011;12082;51.786;6.018;2023-03-01T11:05:02;16.97;;;15.43;;
23802;SDS011;12082;51.786;6.018;2023-03-01T11:07:53;17.07;;;15.73;;
23802;SDS011;12082;51.786;6.018;2023-03-01T11:10:25;16.40;;;15.10;;
23802;SDS011;12082;51.786;6.018;2023-03-01T11:16:01;16.37;;;14.97;;
23802;SDS011;12082;51.786;6.018;2023-03-01T11:18:31;16.03;;;14.80;;
23802;SDS011;12082;51.786;6.018;2023-03-01T11:20:57;16.27;;;14.87;;
23802;SDS011;12082;51.786;6.018;2023-03-01T11:23:25;15.93;;;14.73;;
23802;SDS011;12082;51.786;6.018;2023-03-01T11:25:55;16.73;;;15.33;;
23802;SDS011;12082;51.786;6.018;2023-03-01T11:28:22;17.83;;;16.30;;
23802;SDS011;12082;51.786;6.018;2023-03-01T11:30:51;17.03;;;15.37;;
23802;SDS011;12082;51.786;6.018;2023-03-01T11:41:59;16.47;;;15.07;;
23802;SDS011;12082;51.786;6.018;2023-03-01T11:44:28;16.40;;;15.07;;
23802;SDS011;12082;51.786;6.018;2023-03-01T11:55:20;16.30;;;14.90;;
23802;SDS011;12082;51.786;6.018;2023-03-01T12:11:36;16.53;;;15.20;;
23802;SDS011;12082;51.786;6.018;2023-03-01T12:22:57;16.47;;;14.97;;
23802;SDS011;12082;51.786;6.018;2023-03-01T12:26:01;16.50;;;15.13;;
23802;SDS011;12082;51.786;6.018;2023-03-01T12:42:01;16.30;;;14.90;;
23802;SDS011;12082;51.786;6.018;2023-03-01T12:47:42;16.93;;;15.23;;
23802;SDS011;12082;51.786;6.018;2023-03-01T12:50:23;15.83;;;14.60;;
23802;SDS011;12082;51.786;6.018;2023-03-01T12:52:56;16.33;;;14.93;;
23802;SDS011;12082;51.786;6.018;2023-03-01T12:55:27;17.77;;;16.17;;
23802;SDS011;12082;51.786;6.018;2023-03-01T12:58:16;16.57;;;15.13;;
23802;SDS011;12082;51.786;6.018;2023-03-01T13:01:20;17.07;;;15.53;;
23802;SDS011;12082;51.786;6.018;2023-03-01T13:06:19;16.33;;;14.87;;
23802;SDS011;12082;51.786;6.018;2023-03-01T13:11:48;16.87;;;15.30;;
23802;SDS011;12082;51.786;6.018;2023-03-01T13:16:46;16.67;;;15.27;;
23802;SDS011;12082;51.786;6.018;2023-03-01T13:21:50;16.87;;;15.33;;
23802;SDS011;12082;51.786;6.018;2023-03-01T13:24:26;16.70;;;15.20;;
23802;SDS011;12082;51.786;6.018;2023-03-01T13:27:09;17.03;;;15.50;;
23802;SDS011;12082;51.786;6.018;2023-03-01T13:29:49;17.13;;;15.63;;
23802;SDS011;12082;51.786;6.018;2023-03-01T13:32:32;17.27;;;15.47;;
23802;SDS011;12082;51.786;6.018;2023-03-01T13:37:40;17.80;;;16.17;;
23802;SDS011;12082;51.786;6.018;2023-03-01T13:42:42;18.37;;;16.63;;
23802;SDS011;12082;51.786;6.018;2023-03-01T13:45:24;16.70;;;15.13;;
23802;SDS011;12082;51.786;6.018;2023-03-01T13:48:00;17.77;;;15.97;;
23802;SDS011;12082;51.786;6.018;2023-03-01T13:50:33;16.17;;;14.87;;
23802;SDS011;12082;51.786;6.018;2023-03-01T13:53:04;17.63;;;15.90;;
23802;SDS011;12082;51.786;6.018;2023-03-01T13:58:18;18.43;;;17.03;;
23802;SDS011;12082;51.786;6.018;2023-03-01T14:03:25;16.57;;;15.13;;
23802;SDS011;12082;51.786;6.018;2023-03-01T14:06:05;16.90;;;15.33;;
23802;SDS011;12082;51.786;6.018;2023-03-01T14:08:38;17.30;;;15.70;;
23802;SDS011;12082;51.786;6.018;2023-03-01T14:19:20;17.47;;;15.90;;
23802;SDS011;12082;51.786;6.018;2023-03-01T14:24:56;15.97;;;14.67;;
23802;SDS011;12082;51.786;6.018;2023-03-01T14:27:28;16.30;;;14.93;;
23802;SDS011;12082;51.786;6.018;2023-03-01T14:30:00;16.30;;;14.57;;
23802;SDS011;12082;51.786;6.018;2023-03-01T14:32:29;16.43;;;14.93;;
23802;SDS011;12082;51.786;6.018;2023-03-01T14:34:57;15.63;;;14.03;;
23802;SDS011;12082;51.786;6.018;2023-03-01T14:37:28;15.97;;;14.60;;
23802;SDS011;12082;51.786;6.018;2023-03-01T14:39:54;16.10;;;14.73;;
23802;SDS011;12082;51.786;6.018;2023-03-01T14:42:21;15.47;;;14.27;;
23802;SDS011;12082;51.786;6.018;2023-03-01T14:44:50;15.50;;;14.17;;
23802;SDS011;12082;51.786;6.018;2023-03-01T14:47:24;15.03;;;13.70;;
23802;SDS011;12082;51.786;6.018;2023-03-01T14:49:52;15.00;;;13.83;;
23802;SDS011;12082;51.786;6.018;2023-03-01T14:52:25;15.33;;;14.07;;
23802;SDS011;12082;51.786;6.018;2023-03-01T14:54:59;15.23;;;13.90;;
23802;SDS011;12082;51.786;6.018;2023-03-01T14:57:25;15.83;;;14.53;;
23802;SDS011;12082;51.786;6.018;2023-03-01T14:59:52;14.67;;;13.43;;
23802;SDS011;12082;51.786;6.018;2023-03-01T15:02:24;15.40;;;13.90;;
23802;SDS011;12082;51.786;6.018;2023-03-01T15:04:52;15.80;;;14.30;;
23802;SDS011;12082;51.786;6.018;2023-03-01T15:07:21;15.00;;;13.80;;
23802;SDS011;12082;51.786;6.018;2023-03-01T15:09:51;14.87;;;13.50;;
23802;SDS011;12082;51.786;6.018;2023-03-01T15:15:00;15.40;;;13.57;;
23802;SDS011;12082;51.786;6.018;2023-03-01T15:17:27;14.07;;;12.97;;
23802;SDS011;12082;51.786;6.018;2023-03-01T15:19:57;14.70;;;13.40;;
23802;SDS011;12082;51.786;6.018;2023-03-01T15:22:24;14.23;;;12.93;;
23802;SDS011;12082;51.786;6.018;2023-03-01T15:24:51;15.57;;;14.13;;
23802;SDS011;12082;51.786;6.018;2023-03-01T15:27:19;15.00;;;13.60;;
23802;SDS011;12082;51.786;6.018;2023-03-01T15:29:57;15.67;;;14.30;;
23802;SDS011;12082;51.786;6.018;2023-03-01T15:32:29;15.10;;;13.90;;
23802;SDS011;12082;51.786;6.018;2023-03-01T15:34:55;14.37;;;13.17;;
23802;SDS011;12082;51.786;6.018;2023-03-01T15:37:46;15.50;;;14.03;;
23802;SDS011;12082;51.786;6.018;2023-03-01T15:40:20;15.80;;;14.27;;
23802;SDS011;12082;51.786;6.018;2023-03-01T15:42:56;14.90;;;13.57;;
23802;SDS011;12082;51.786;6.018;2023-03-01T15:45:31;14.87;;;13.57;;
23802;SDS011;12082;51.786;6.018;2023-03-01T15:48:05;14.30;;;13.10;;
23802;SDS011;12082;51.786;6.018;2023-03-01T15:50:46;14.70;;;13.60;;
23802;SDS011;12082;51.786;6.018;2023-03-01T15:53:20;14.60;;;13.40;;
23802;SDS011;12082;51.786;6.018;2023-03-01T15:55:45;15.73;;;14.43;;
23802;SDS011;12082;51.786;6.018;2023-03-01T15:58:16;15.67;;;14.47;;
23802;SDS011;12082;51.786;6.018;2023-03-01T16:00:44;15.27;;;14.17;;
23802;SDS011;12082;51.786;6.018;2023-03-01T16:03:13;15.10;;;13.80;;
23802;SDS011;12082;51.786;6.018;2023-03-01T16:05:39;15.73;;;14.17;;
23802;SDS011;12082;51.786;6.018;2023-03-01T16:08:05;14.60;;;13.50;;
23802;SDS011;12082;51.786;6.018;2023-03-01T16:10:32;16.07;;;14.77;;
23802;SDS011;12082;51.786;6.018;2023-03-01T16:12:58;16.57;;;15.27;;
23802;SDS011;12082;51.786;6.018;2023-03-01T16:15:28;16.93;;;15.50;;
23802;SDS011;12082;51.786;6.018;2023-03-01T16:17:56;15.63;;;14.40;;
23802;SDS011;12082;51.786;6.018;2023-03-01T16:20:23;16.10;;;14.90;;
23802;SDS011;12082;51.786;6.018;2023-03-01T16:22:49;16.93;;;15.47;;
23802;SDS011;12082;51.786;6.018;2023-03-01T16:25:16;16.77;;;15.13;;
23802;SDS011;12082;51.786;6.018;2023-03-01T16:27:43;16.30;;;14.80;;
23802;SDS011;12082;51.786;6.018;2023-03-01T16:30:10;16.37;;;15.13;;
23802;SDS011;12082;51.786;6.018;2023-03-01T16:32:40;15.97;;;14.53;;
23802;SDS011;12082;51.786;6.018;2023-03-01T16:35:06;16.43;;;14.83;;
23802;SDS011;12082;51.786;6.018;2023-03-01T16:37:34;15.57;;;14.33;;
23802;SDS011;12082;51.786;6.018;2023-03-01T16:40:00;15.90;;;14.77;;
23802;SDS011;12082;51.786;6.018;2023-03-01T16:42:26;16.23;;;14.90;;